createdAt,value
2022-09-28T00:01:45.004Z,17.70
2022-09-28T00:04:12.623Z,17.86
2022-09-28T00:06:40.039Z,17.69
2022-09-28T00:09:07.229Z,16.41
2022-09-28T00:11:34.664Z,17.98
2022-09-28T00:14:03.576Z,18.58
2022-09-28T00:16:31.841Z,19.00
2022-09-28T00:19:00.492Z,18.99
2022-09-28T00:21:28.762Z,19.14
2022-09-28T00:24:15.706Z,19.28
2022-09-28T00:26:56.385Z,19.13
2022-09-28T00:29:30.570Z,18.42
2022-09-28T00:32:03.399Z,17.96
2022-09-28T00:34:31.987Z,17.69
2022-09-28T00:36:59.618Z,17.45
2022-09-28T00:39:27.188Z,17.91
2022-09-28T00:41:54.390Z,17.67
2022-09-28T00:44:34.090Z,17.44
2022-09-28T00:47:01.292Z,17.89
2022-09-28T00:49:33.112Z,16.64
2022-09-28T00:52:00.254Z,16.41
2022-09-28T00:54:27.393Z,16.41
2022-09-28T00:56:54.776Z,15.54
2022-09-28T00:59:24.687Z,16.58
2022-09-28T01:01:51.905Z,16.50
2022-09-28T01:04:19.595Z,17.29
2022-09-28T01:06:46.743Z,16.87
2022-09-28T01:09:14.451Z,16.90
2022-09-28T01:11:42.395Z,17.40
2022-09-28T01:14:11.315Z,17.16
2022-09-28T01:16:55.111Z,17.26
2022-09-28T01:19:26.230Z,16.24
2022-09-28T01:21:54.520Z,17.02
2022-09-28T01:24:33.201Z,16.02
2022-09-28T01:27:02.560Z,17.40
2022-09-28T01:29:33.488Z,17.31
2022-09-28T01:32:13.491Z,17.17
2022-09-28T01:35:00.977Z,17.77
2022-09-28T01:37:30.643Z,17.38
2022-09-28T01:39:57.782Z,17.24
2022-09-28T01:42:26.947Z,16.05
2022-09-28T01:44:54.859Z,15.96
2022-09-28T01:47:22.471Z,16.48
2022-09-28T01:50:00.669Z,17.16
2022-09-28T01:52:35.445Z,16.63
2022-09-28T01:55:04.102Z,17.57
2022-09-28T01:57:37.814Z,17.16
2022-09-28T02:00:06.909Z,16.85
2022-09-28T02:02:48.811Z,17.09
2022-09-28T02:05:40.174Z,16.33
2022-09-28T02:08:15.893Z,16.80
2022-09-28T02:10:50.803Z,17.21
2022-09-28T02:13:18.083Z,16.80
2022-09-28T02:15:45.532Z,17.39
2022-09-28T02:18:12.715Z,17.52
2022-09-28T02:20:40.600Z,17.17
2022-09-28T02:23:08.017Z,17.05
2022-09-28T02:25:38.395Z,16.00
2022-09-28T02:28:06.843Z,16.54
2022-09-28T02:30:36.390Z,16.24
2022-09-28T02:33:05.563Z,16.46
2022-09-28T02:35:35.327Z,16.99
2022-09-28T02:38:04.461Z,16.91
2022-09-28T02:40:32.485Z,16.96
2022-09-28T02:42:59.656Z,16.07
2022-09-28T02:45:34.210Z,16.61
2022-09-28T02:48:07.530Z,17.00
2022-09-28T02:50:39.597Z,17.41
2022-09-28T02:53:06.836Z,17.54
2022-09-28T02:55:39.759Z,17.84
2022-09-28T02:58:10.054Z,18.12
2022-09-28T03:01:09.850Z,17.70
2022-09-28T03:03:41.493Z,18.42
2022-09-28T03:06:16.036Z,18.86
2022-09-28T03:08:45.435Z,18.78
2022-09-28T03:11:14.910Z,19.06
2022-09-28T03:13:42.642Z,18.80
2022-09-28T03:16:15.265Z,18.61
2022-09-28T03:18:43.690Z,18.90
2022-09-28T03:21:11.568Z,19.01
2022-09-28T03:23:39.000Z,19.09
2022-09-28T03:26:07.581Z,19.11
2022-09-28T03:28:36.262Z,19.29
2022-09-28T03:31:03.799Z,19.09
2022-09-28T03:33:30.990Z,19.13
2022-09-28T03:35:58.843Z,18.97
2022-09-28T03:38:26.211Z,19.29
2022-09-28T03:40:58.290Z,18.94
2022-09-28T03:43:26.432Z,19.20
2022-09-28T03:45:55.266Z,19.26
2022-09-28T03:48:28.798Z,19.28
2022-09-28T03:51:00.295Z,18.57
2022-09-28T03:53:28.863Z,18.55
2022-09-28T03:55:56.653Z,18.87
2022-09-28T03:58:24.062Z,18.78
2022-09-28T04:00:54.248Z,19.05
2022-09-28T04:03:22.015Z,18.95
2022-09-28T04:05:51.812Z,18.48
2022-09-28T04:08:19.226Z,17.58
2022-09-28T04:10:46.747Z,18.13
2022-09-28T04:13:13.899Z,16.96
2022-09-28T04:15:41.391Z,16.95
2022-09-28T04:18:11.818Z,17.20
2022-09-28T04:20:46.038Z,17.67
2022-09-28T04:23:15.790Z,17.45
2022-09-28T04:25:47.800Z,17.01
2022-09-28T04:28:34.225Z,16.15
2022-09-28T04:31:01.372Z,15.68
2022-09-28T04:33:29.100Z,15.66
2022-09-28T04:35:56.363Z,16.20
2022-09-28T04:38:41.521Z,17.11
2022-09-28T04:41:12.293Z,17.79
2022-09-28T04:43:40.129Z,17.96
2022-09-28T04:46:07.450Z,18.08
2022-09-28T04:48:37.366Z,18.20
2022-09-28T04:51:04.589Z,17.66
2022-09-28T04:53:31.766Z,17.42
2022-09-28T04:55:59.973Z,17.90
2022-09-28T04:58:27.273Z,18.31
2022-09-28T05:00:57.100Z,18.55
2022-09-28T05:03:26.872Z,18.47
2022-09-28T05:05:54.430Z,18.50
2022-09-28T05:08:22.071Z,18.46
2022-09-28T05:10:49.532Z,18.48
2022-09-28T05:13:18.695Z,18.50
2022-09-28T05:15:45.915Z,18.55
2022-09-28T05:18:14.214Z,18.64
2022-09-28T05:20:42.214Z,18.65
2022-09-28T05:23:10.034Z,18.55
2022-09-28T05:25:37.529Z,18.61
2022-09-28T05:28:05.885Z,18.71
2022-09-28T05:30:36.716Z,18.84
2022-09-28T05:33:05.085Z,18.57
2022-09-28T05:35:32.802Z,18.50
2022-09-28T05:38:04.448Z,18.39
2022-09-28T05:40:32.103Z,18.70
2022-09-28T05:43:00.692Z,18.58
2022-09-28T05:45:28.989Z,18.61
2022-09-28T05:47:56.717Z,18.98
2022-09-28T05:50:24.021Z,18.60
2022-09-28T05:53:01.353Z,18.61
2022-09-28T05:55:29.118Z,18.55
2022-09-28T05:57:59.839Z,18.52
2022-09-28T06:00:27.517Z,18.60
2022-09-28T06:03:08.964Z,18.47
2022-09-28T06:05:37.134Z,17.91
2022-09-28T06:08:05.374Z,18.22
2022-09-28T06:10:33.422Z,18.31
2022-09-28T06:13:01.266Z,18.12
2022-09-28T06:15:29.561Z,18.34
2022-09-28T06:17:57.382Z,18.51
2022-09-28T06:20:26.241Z,18.54
2022-09-28T06:22:55.163Z,18.79
2022-09-28T06:25:23.116Z,18.84
2022-09-28T06:27:56.655Z,18.43
2022-09-28T06:30:26.873Z,18.65
2022-09-28T06:32:55.037Z,18.11
2022-09-28T06:35:22.580Z,18.12
2022-09-28T06:37:51.399Z,17.53
2022-09-28T06:40:19.154Z,17.79
2022-09-28T06:43:02.458Z,17.82
2022-09-28T06:45:30.422Z,18.21
2022-09-28T06:48:00.964Z,18.23
2022-09-28T06:50:32.354Z,18.30
2022-09-28T06:53:02.327Z,18.52
2022-09-28T06:55:30.244Z,17.13
2022-09-28T06:57:59.131Z,18.24
2022-09-28T07:00:27.259Z,18.48
2022-09-28T07:02:55.064Z,18.39
2022-09-28T07:05:26.816Z,18.89
2022-09-28T07:07:55.311Z,18.96
2022-09-28T07:10:27.795Z,18.64
2022-09-28T07:12:57.113Z,19.07
2022-09-28T07:15:25.417Z,19.18
2022-09-28T07:18:02.420Z,19.10
2022-09-28T07:20:34.527Z,18.13
2022-09-28T07:23:16.413Z,18.52
2022-09-28T07:25:48.041Z,18.39
2022-09-28T07:28:18.577Z,19.18
2022-09-28T07:30:47.287Z,19.22
2022-09-28T07:33:15.902Z,18.32
2022-09-28T07:35:50.753Z,19.02
2022-09-28T07:38:18.602Z,19.22
2022-09-28T07:41:04.259Z,19.38
2022-09-28T07:43:32.384Z,19.59
2022-09-28T07:45:59.638Z,19.61
2022-09-28T07:48:26.892Z,19.61
2022-09-28T07:50:55.335Z,19.38
2022-09-28T07:53:24.880Z,18.92
2022-09-28T07:55:52.935Z,19.93
2022-09-28T07:58:21.417Z,20.05
2022-09-28T08:00:49.303Z,20.00
2022-09-28T08:03:17.747Z,19.81
2022-09-28T08:05:45.735Z,20.13
2022-09-28T08:08:13.347Z,20.21
2022-09-28T08:10:46.830Z,20.75
2022-09-28T08:13:16.689Z,20.81
2022-09-28T08:15:51.120Z,20.65
2022-09-28T08:18:19.168Z,21.23
2022-09-28T08:21:05.144Z,19.31
2022-09-28T08:23:32.374Z,20.13
2022-09-28T08:26:00.657Z,20.65
2022-09-28T08:28:27.827Z,20.60
2022-09-28T08:30:55.866Z,21.14
2022-09-28T08:33:24.786Z,21.19
2022-09-28T08:36:06.167Z,20.70
2022-09-28T08:38:33.886Z,20.67
2022-09-28T08:41:20.892Z,21.33
2022-09-28T08:44:03.798Z,21.01
2022-09-28T08:46:51.264Z,20.64
2022-09-28T08:49:25.266Z,21.41
2022-09-28T08:52:06.267Z,20.92
2022-09-28T08:54:36.868Z,20.26
2022-09-28T08:57:13.586Z,20.32
2022-09-28T08:59:43.862Z,19.67
2022-09-28T09:02:15.518Z,20.87
2022-09-28T09:04:42.955Z,21.00
2022-09-28T09:07:29.031Z,20.56
2022-09-28T09:10:14.796Z,20.40
2022-09-28T09:12:58.674Z,20.77
2022-09-28T09:15:26.219Z,21.17
2022-09-28T09:17:53.450Z,21.22
2022-09-28T09:20:26.109Z,20.37
2022-09-28T09:22:57.792Z,20.68
2022-09-28T09:25:24.924Z,20.57
2022-09-28T09:28:11.825Z,20.59
2022-09-28T09:30:44.174Z,20.41
2022-09-28T09:33:30.143Z,20.80
2022-09-28T09:35:58.944Z,20.09
2022-09-28T09:38:40.798Z,20.40
2022-09-28T09:41:25.190Z,20.16
2022-09-28T09:43:59.935Z,20.79
2022-09-28T09:46:43.065Z,20.58
2022-09-28T09:49:23.842Z,21.03
2022-09-28T09:51:51.387Z,20.51
2022-09-28T09:54:21.487Z,20.69
2022-09-28T09:56:50.313Z,21.22
2022-09-28T09:59:19.692Z,20.96
2022-09-28T10:01:48.282Z,20.94
2022-09-28T10:04:24.381Z,20.25
2022-09-28T10:06:53.947Z,20.80
2022-09-28T10:09:26.896Z,20.48
2022-09-28T10:11:56.309Z,20.17
2022-09-28T10:14:24.505Z,21.06
2022-09-28T10:16:53.770Z,20.83
2022-09-28T10:19:22.230Z,21.35
2022-09-28T10:21:53.412Z,21.23
2022-09-28T10:24:23.323Z,21.49
2022-09-28T10:26:50.919Z,21.14
2022-09-28T10:29:21.825Z,21.27
2022-09-28T10:31:50.036Z,21.98
2022-09-28T10:34:19.707Z,21.59
2022-09-28T10:36:51.073Z,21.26
2022-09-28T10:39:23.348Z,21.15
2022-09-28T10:41:50.484Z,20.12
2022-09-28T10:44:18.755Z,20.85
2022-09-28T10:46:46.492Z,20.78
2022-09-28T10:49:15.805Z,20.75
2022-09-28T10:51:43.512Z,21.28
2022-09-28T10:54:20.022Z,21.17
2022-09-28T10:56:47.949Z,21.38
2022-09-28T10:59:24.416Z,22.07
2022-09-28T11:01:55.987Z,22.41
2022-09-28T11:04:24.532Z,22.41
2022-09-28T11:06:51.908Z,21.71
2022-09-28T11:09:32.155Z,21.09
2022-09-28T11:12:00.324Z,21.15
2022-09-28T11:14:29.110Z,21.63
2022-09-28T11:17:32.955Z,21.82
2022-09-28T11:20:01.612Z,21.99
2022-09-28T11:22:30.215Z,21.24
2022-09-28T11:25:16.187Z,21.73
2022-09-28T11:27:55.143Z,21.30
2022-09-28T11:30:31.535Z,21.00
2022-09-28T11:33:04.094Z,20.61
2022-09-28T11:35:42.991Z,21.49
2022-09-28T11:38:16.545Z,22.12
2022-09-28T11:40:56.920Z,22.13
2022-09-28T11:43:24.411Z,21.77
2022-09-28T11:45:55.391Z,21.79
2022-09-28T11:48:24.036Z,21.26
2022-09-28T11:50:56.248Z,21.23
2022-09-28T11:53:30.276Z,20.26
2022-09-28T11:56:11.906Z,21.34
2022-09-28T11:59:08.994Z,21.39
2022-09-28T12:01:50.230Z,21.26
2022-09-28T12:04:20.461Z,21.15
2022-09-28T12:06:51.852Z,21.33
2022-09-28T12:09:24.877Z,21.22
2022-09-28T12:11:54.783Z,21.52
2022-09-28T12:14:29.391Z,22.09
2022-09-28T12:17:11.027Z,21.52
2022-09-28T12:19:39.388Z,21.25
2022-09-28T12:22:16.335Z,22.04
2022-09-28T12:24:47.603Z,21.59
2022-09-28T12:27:21.047Z,21.19
2022-09-28T12:29:51.689Z,20.99
2022-09-28T12:32:38.723Z,21.58
2022-09-28T12:35:13.649Z,21.18
2022-09-28T12:37:46.927Z,22.04
2022-09-28T12:40:29.819Z,22.44
2022-09-28T12:43:04.367Z,22.41
2022-09-28T12:46:09.903Z,21.68
2022-09-28T12:48:36.292Z,21.46
2022-09-28T12:51:07.994Z,22.23
2022-09-28T12:53:35.175Z,21.18
2022-09-28T12:56:03.500Z,21.56
2022-09-28T12:58:40.775Z,21.80
2022-09-28T13:01:19.987Z,21.82
2022-09-28T13:03:47.406Z,21.87
2022-09-28T13:06:17.559Z,22.38
2022-09-28T13:09:03.907Z,22.25
2022-09-28T13:11:43.685Z,22.26
2022-09-28T13:14:16.780Z,22.57
2022-09-28T13:17:03.359Z,22.30
2022-09-28T13:19:36.497Z,22.42
2022-09-28T13:22:22.486Z,22.00
2022-09-28T13:24:49.633Z,21.16
2022-09-28T13:27:19.451Z,21.94
2022-09-28T13:29:47.061Z,21.87
2022-09-28T13:32:15.139Z,22.36
2022-09-28T13:34:42.772Z,22.82
2022-09-28T13:37:16.915Z,22.39
2022-09-28T13:39:44.327Z,22.18
2022-09-28T13:42:31.905Z,22.17
2022-09-28T13:45:38.125Z,22.10
2022-09-28T13:48:17.859Z,22.06
2022-09-28T13:50:54.921Z,21.84
2022-09-28T13:53:51.222Z,22.33
2022-09-28T13:56:18.766Z,21.82
2022-09-28T13:58:51.481Z,21.81
2022-09-28T14:01:19.457Z,20.71
2022-09-28T14:03:57.359Z,21.26
2022-09-28T14:06:27.504Z,20.77
2022-09-28T14:09:13.647Z,21.20
2022-09-28T14:11:42.575Z,21.14
2022-09-28T14:14:13.953Z,20.62
2022-09-28T14:16:41.454Z,20.63
2022-09-28T14:19:24.644Z,20.54
2022-09-28T14:22:01.393Z,21.42
2022-09-28T14:24:34.611Z,21.18
2022-09-28T14:27:06.363Z,21.07
2022-09-28T14:29:34.481Z,21.17
2022-09-28T14:32:05.939Z,21.36
2022-09-28T14:34:43.116Z,21.45
2022-09-28T14:37:39.616Z,21.41
2022-09-28T14:40:49.374Z,22.01
2022-09-28T14:43:24.794Z,21.85
2022-09-28T14:46:23.213Z,21.87
2022-09-28T14:48:52.713Z,22.10
2022-09-28T14:51:33.909Z,21.85
2022-09-28T14:54:04.852Z,21.89
2022-09-28T14:56:33.551Z,22.28
2022-09-28T14:59:00.687Z,22.64
2022-09-28T15:01:28.093Z,22.56
2022-09-28T15:03:55.816Z,22.18
2022-09-28T15:06:23.378Z,21.99
2022-09-28T15:08:50.793Z,21.46
2022-09-28T15:11:24.588Z,22.13
2022-09-28T15:13:55.630Z,22.27
2022-09-28T15:16:23.249Z,22.34
2022-09-28T15:18:57.621Z,21.49
2022-09-28T15:21:31.752Z,21.58
2022-09-28T15:23:58.899Z,22.12
2022-09-28T15:26:28.949Z,22.09
2022-09-28T15:28:56.131Z,21.74
2022-09-28T15:31:25.606Z,21.92
2022-09-28T15:34:11.848Z,22.20
2022-09-28T15:36:42.310Z,22.36
2022-09-28T15:39:20.102Z,22.43
2022-09-28T15:41:47.903Z,22.28
2022-09-28T15:44:15.316Z,22.02
2022-09-28T15:46:42.915Z,21.95
2022-09-28T15:49:20.511Z,21.61
2022-09-28T15:51:49.618Z,21.97
2022-09-28T15:54:19.631Z,21.69
2022-09-28T15:56:51.953Z,22.58
2022-09-28T15:59:25.020Z,22.85
2022-09-28T16:02:04.097Z,22.79
2022-09-28T16:04:38.350Z,22.04
2022-09-28T16:07:05.486Z,22.90
2022-09-28T16:09:36.111Z,22.86
2022-09-28T16:12:09.131Z,22.28
2022-09-28T16:14:36.269Z,22.08
2022-09-28T16:17:04.036Z,21.94
2022-09-28T16:19:32.328Z,21.89
2022-09-28T16:21:59.891Z,21.30
2022-09-28T16:24:32.212Z,22.21
2022-09-28T16:27:04.108Z,21.90
2022-09-28T16:29:39.968Z,21.48
2022-09-28T16:32:25.938Z,21.90
2022-09-28T16:35:08.545Z,22.16
2022-09-28T16:37:35.956Z,22.19
2022-09-28T16:40:03.815Z,22.74
2022-09-28T16:42:30.954Z,22.70
2022-09-28T16:44:58.371Z,22.96
2022-09-28T16:47:25.503Z,22.67
2022-09-28T16:49:52.673Z,22.72
2022-09-28T16:52:40.008Z,22.49
2022-09-28T16:58:04.893Z,22.45
2022-09-28T17:00:32.497Z,22.51
2022-09-28T17:02:59.793Z,22.38
2022-09-28T17:05:27.306Z,22.01
2022-09-28T17:08:04.429Z,21.62
2022-09-28T17:11:02.586Z,21.27
2022-09-28T17:13:36.128Z,21.36
2022-09-28T17:16:09.002Z,21.82
2022-09-28T17:18:38.986Z,22.28
2022-09-28T17:21:07.573Z,22.44
2022-09-28T17:23:34.740Z,22.65
2022-09-28T17:26:01.891Z,22.33
2022-09-28T17:28:33.049Z,22.40
2022-09-28T17:31:00.495Z,22.68
2022-09-28T17:33:28.396Z,22.89
2022-09-28T17:36:00.164Z,22.99
2022-09-28T17:38:27.626Z,23.34
2022-09-28T17:40:55.078Z,23.02
2022-09-28T17:43:22.847Z,22.90
2022-09-28T17:45:50.422Z,23.31
2022-09-28T17:48:19.429Z,23.38
2022-09-28T17:50:47.511Z,23.22
2022-09-28T17:53:15.021Z,22.86
2022-09-28T17:55:43.142Z,23.06
2022-09-28T17:58:17.919Z,22.94
2022-09-28T18:00:48.863Z,23.17
2022-09-28T18:03:20.286Z,22.98
2022-09-28T18:05:49.094Z,22.76
2022-09-28T18:08:20.653Z,22.85
2022-09-28T18:10:47.904Z,23.08
2022-09-28T18:13:15.035Z,23.08
2022-09-28T18:15:42.819Z,22.39
2022-09-28T18:18:10.405Z,22.82
2022-09-28T18:20:37.650Z,22.45
2022-09-28T18:23:05.275Z,22.42
2022-09-28T18:25:32.418Z,22.53
2022-09-28T18:28:00.191Z,22.01
2022-09-28T18:30:27.845Z,22.55
2022-09-28T18:32:55.030Z,22.57
2022-09-28T18:35:23.351Z,22.46
2022-09-28T18:37:51.234Z,22.80
2022-09-28T18:40:19.479Z,22.19
2022-09-28T18:42:46.847Z,22.42
2022-09-28T18:45:17.240Z,22.94
2022-09-28T18:47:45.189Z,22.79
2022-09-28T18:50:13.161Z,22.99
2022-09-28T18:52:43.040Z,22.78
2022-09-28T18:55:11.018Z,22.43
2022-09-28T18:57:39.971Z,22.55
2022-09-28T19:00:08.853Z,23.02
2022-09-28T19:02:36.286Z,22.90
2022-09-28T19:05:03.948Z,23.17
2022-09-28T19:07:31.930Z,23.00
2022-09-28T19:09:59.127Z,22.27
2022-09-28T19:12:26.421Z,22.72
2022-09-28T19:14:53.801Z,22.71
2022-09-28T19:17:21.289Z,22.67
2022-09-28T19:19:48.395Z,22.59
2022-09-28T19:22:15.850Z,22.47
2022-09-28T19:24:43.006Z,22.58
2022-09-28T19:27:10.366Z,22.86
2022-09-28T19:29:37.763Z,22.91
2022-09-28T19:32:04.898Z,22.99
2022-09-28T19:34:32.050Z,22.77
2022-09-28T19:37:03.870Z,22.76
2022-09-28T19:39:31.204Z,22.50
2022-09-28T19:41:59.744Z,22.61
2022-09-28T19:44:28.097Z,22.21
2022-09-28T19:46:55.338Z,22.01
2022-09-28T19:49:23.028Z,22.03
2022-09-28T19:52:11.684Z,22.25
2022-09-28T19:54:38.359Z,22.29
2022-09-28T19:57:08.056Z,22.35
2022-09-28T19:59:36.661Z,22.55
2022-09-28T20:02:04.804Z,22.61
2022-09-28T20:04:32.193Z,22.84
2022-09-28T20:06:59.325Z,22.77
2022-09-28T20:09:26.435Z,22.38
2022-09-28T20:11:53.821Z,22.36
2022-09-28T20:14:23.391Z,22.28
2022-09-28T20:16:53.104Z,22.52
2022-09-28T20:19:21.565Z,22.74
2022-09-28T20:21:48.830Z,22.53
2022-09-28T20:24:19.042Z,22.48
2022-09-28T20:26:46.424Z,22.45
2022-09-28T20:29:13.597Z,22.38
2022-09-28T20:31:40.884Z,22.69
2022-09-28T20:34:08.944Z,22.28
2022-09-28T20:36:36.091Z,22.55
2022-09-28T20:39:03.349Z,22.17
2022-09-28T20:41:36.701Z,21.98
2022-09-28T20:44:06.343Z,22.04
2022-09-28T20:46:34.922Z,22.01
2022-09-28T20:49:02.400Z,20.85
2022-09-28T20:51:29.509Z,21.70
2022-09-28T20:53:57.385Z,20.76
2022-09-28T20:56:25.616Z,20.31
2022-09-28T20:58:53.322Z,20.89
2022-09-28T21:01:21.899Z,21.21
2022-09-28T21:03:50.373Z,21.27
2022-09-28T21:06:18.055Z,21.78
2022-09-28T21:08:45.854Z,22.06
2022-09-28T21:11:13.733Z,22.05
2022-09-28T21:13:42.906Z,22.18
2022-09-28T21:16:10.961Z,22.21
2022-09-28T21:18:38.867Z,22.52
2022-09-28T21:21:07.868Z,22.52
2022-09-28T21:23:35.894Z,22.19
2022-09-28T21:26:06.194Z,22.38
2022-09-28T21:28:33.559Z,22.62
2022-09-28T21:31:01.771Z,22.52
2022-09-28T21:33:28.961Z,22.75
2022-09-28T21:35:56.069Z,22.50
2022-09-28T21:38:23.510Z,22.20
2022-09-28T21:40:53.806Z,22.34
2022-09-28T21:43:20.949Z,22.40
2022-09-28T21:45:54.599Z,22.59
2022-09-28T21:48:22.199Z,22.55
2022-09-28T21:50:59.846Z,22.53
2022-09-28T21:53:28.970Z,22.41
2022-09-28T21:55:56.491Z,22.57
2022-09-28T21:58:24.345Z,22.34
2022-09-28T22:00:59.058Z,22.37
2022-09-28T22:03:26.920Z,22.43
